Aérodrome :
LOGIN :

S'inscrire | Disclaimer

   EN    FR    IT 

 










Légende :    VFR   VFR Marginal   IFR   IFR Intensif   IFR Très Intensif
Visi : 
Plafond : 
>= 8 km
>= 3000ft
5 à 8 km
1000 à 3000 ft
1500m à 5 km
500 à 1000 ft
800 à 1500m
200 à 500 ft
< 800m
< 200 ft
Symboles :   Orages  Brouillard  Fortes neiges  Fortes précipitations  Vent > 20 kt
SIGMETs :   Divers  Orages  Givrage  Turbulence  Onde Orograph.  Cendres Volcan.






- Altitude de l'aérodrome : 348 ft
- Code IATA : STN


EGSS - London Stansted

DERNIER METAR :
  • 020720Z AUTO 25005KT 9999 OVC032 05/03 Q1016

METARs EXPIRÉS :
  • 020650Z AUTO VRB03KT 9999 BKN031 05/03 Q1016
  • 020620Z AUTO 24004KT 9999 SCT033 04/02 Q1016
  • 020550Z AUTO 23004KT 9999 BKN019 BKN023 02/01 Q1016
  • 020520Z AUTO 25003KT 9999 SCT018 BKN023 03/01 Q1016
  • 020450Z AUTO 27003KT 9999 NCD 03/02 Q1016

TAF TAF EGSS
Valide du 02 à 06h jusqu'au 03 à 12h UTC


020501Z 0206/0312 28004KT 9999 SCT040
PROB30
TEMPO 0206/0210 8000 -RA BKN012
BECMG 0210/0213 28014KT
TEMPO 0210/0222 8000 -SHRA
BECMG 0222/0301 32004KT
ATIS : +44 1279 669 325



MET'MAP, la Météo Aéronautique d'un coup d'oeil ! - Copyright ORBIFLY Décembre 2007 - Disclaimer

ORBIFLY MET'MAP TEAM :

Programmation & Développement : Alexandra Zaïnal
Sur une idée originale de : Baudouin d'Aumeries
Assistance à la programmation : Marc-Olivier Méhu
Soutien technique & logistique : Manuel Goepfert

Contact : metmap@orbifly.com




SOURCES & CREDITS :

   NOAA